Mayville, WI

8:33 PM CST on December 03, 2016 (GMT -0600)
Dayton Street Commons | | Change Station
Active Advisory: Winter Weather Advisory

Elev 900 ft 43.50 °N, 88.56 °W | Updated 457 days ago

Cloudy
Cloudy
28 °F
Feels Like 28 °F
N
2
Wind Variable Wind from SE
Gusts mph

Today
High -- | Low -- °F
--% Chance of Precip.
Yesterday
High -- | Low -- °F
Precip. -- in
Pressure 30.28 in
Visibility 10.0 miles
Clouds Overcast 2800 ft
Dew Point 23 °F
Humidity 78%
Rainfall in
Snow Depth Not available.
7:10 AM 4:18 PM
Waxing Crescent, 19% visible
METAR KUNU 040215Z AUTO 14004KT 10SM OVC028 M01/M04 A3028 RMK AO2 T10141044
Pressure 30.28 in
Visibility 10.0 miles
Clouds Overcast 2800 ft
Dew Point 23 °F
Humidity 78%
Rainfall in
Snow Depth Not available.
7:10 AM 4:18 PM
Waxing Crescent, 19% visible
METAR KUNU 040215Z AUTO 14004KT 10SM OVC028 M01/M04 A3028 RMK AO2 T10141044

10-Day Weather Forecast

Almanac

Astronomy

Dec. 03, 2016 Rise Set
Actual Time
Civil Twilight
Nautical Twilight
Astronomical Twilight
Moon
Length of Visible Light
Length of Day
Tomorrow will be .
, % of the Moon is Illuminated

Today's Extremes

State Highs State Lows

Community

WunderPhotos

Upload Photos

1,955,564 photos uploaded!

WunderBlog® & News

Nearby

Air Quality

  Air Quality AQ Index Pollutant
Not available.

Snow Depth

Station Depth Elevation

Earthquake Activity

City Distance Mag. Time & Date
Minimum magnitude displayed is 2.5.

Coastal Water Temperatures

Place Temperature

Stations

Nearby Weather Stations

Station Location Temp. Windchill Dew Point Humidity Wind Precip. Elev Updated Type
                   

Watches & Warnings

Winter Weather Advisory
Issued: 8:02 PM CST Dec. 3, 2016 – National Weather Service

... Winter Weather Advisory remains in effect from 7 am to 6 PM
CST Sunday...

A Winter Weather Advisory remains in effect from 7 am to 6 PM CST
Sunday.

* Timing... starting around 8 am at Fond Du Lac and Watertown.
Starting around 9 or 10 am at Milwaukee.

* Snow accumulations... 2 to 3 inches.

* Winds... south at 10 mph.

* Impacts... slippery spots on untreated roads creating hazardous
travel.

Precautionary/preparedness actions...

A Winter Weather Advisory for snow means that periods of snow
will cause primarily travel difficulties. Be prepared for snow
covered roads and limited visibilities... and use caution while
driving.


Mg